Time;durP1;ratioP1;P1;durP2;ratioP2;P2;SDS_P1;SDS_P2;PMS_P1;PMS_P2;Temp;Humidity;BMP_temperature;BMP_pressure;BME280_temperature;BME280_humidity;BME280_pressure;Samples;Min_cycle;Max_cycle;Signal;HPM_P1;HPM_P2
2023/07/01 00:08:18;;;;;;;7.03;4.00;;;12.80;1.00;;;;;;5011622;28;20933;-73
2023/07/01 00:10:58;;;;;;;4.70;3.43;;;12.70;1.00;;;;;;4992871;28;20426;-72
2023/07/01 00:13:24;;;;;;;4.20;3.33;;;12.70;1.00;;;;;;4990684;28;20231;-72
2023/07/01 00:15:52;;;;;;;6.50;3.60;;;12.80;1.00;;;;;;5002926;28;20436;-73
2023/07/01 00:18:18;;;;;;;5.90;3.60;;;12.60;1.00;;;;;;4989584;28;20182;-72
2023/07/01 00:20:44;;;;;;;4.47;3.60;;;12.60;1.00;;;;;;4993534;28;20788;-73
2023/07/01 00:26:31;;;;;;;7.53;4.03;;;12.60;1.00;;;;;;4993753;28;20213;-78
2023/07/01 00:29:22;;;;;;;6.00;3.60;;;12.60;1.00;;;;;;4995067;28;20385;-78
2023/07/01 00:38:32;;;;;;;9.80;4.20;;;12.40;1.00;;;;;;5012260;28;20416;-73
2023/07/01 00:40:57;;;;;;;5.50;3.87;;;12.30;1.00;;;;;;5003430;28;20455;-72
2023/07/01 00:43:23;;;;;;;6.60;4.03;;;12.30;1.00;;;;;;4992094;28;20267;-73
2023/07/01 00:45:49;;;;;;;7.73;3.40;;;12.30;1.00;;;;;;4997594;28;20185;-73
2023/07/01 00:48:26;;;;;;;8.20;3.73;;;12.30;1.00;;;;;;5002335;28;20217;-73
2023/07/01 00:50:53;;;;;;;4.83;3.70;;;12.20;1.00;;;;;;4997211;28;20509;-73
2023/07/01 00:56:40;;;;;;;10.43;4.40;;;12.20;1.00;;;;;;4997523;28;20419;-78
2023/07/01 00:59:28;;;;;;;5.43;3.50;;;12.20;1.00;;;;;;5004150;28;20387;-78
2023/07/01 01:05:39;;;;;;;7.30;4.10;;;12.10;1.00;;;;;;4977789;28;20395;-78
2023/07/01 01:08:41;;;;;;;11.00;4.13;;;12.10;1.00;;;;;;4978152;28;20398;-77
2023/07/01 01:11:08;;;;;;;4.77;4.27;;;12.00;1.00;;;;;;4997826;28;20383;-73
2023/07/01 01:13:35;;;;;;;6.73;3.87;;;12.00;1.00;;;;;;4999498;28;20403;-73
2023/07/01 01:16:02;;;;;;;4.97;4.17;;;12.00;1.00;;;;;;5005433;28;20530;-73
2023/07/01 01:18:32;;;;;;;8.63;3.50;;;12.00;1.00;;;;;;4993735;28;20402;-73
2023/07/01 01:21:06;;;;;;;18.00;4.80;;;12.00;1.00;;;;;;5000651;28;20470;-73
2023/07/01 01:26:58;;;;;;;8.77;4.20;;;11.90;1.00;;;;;;4996763;28;20395;-78
2023/07/01 01:29:53;;;;;;;10.97;4.50;;;11.90;1.00;;;;;;5008164;28;20391;-78
2023/07/01 01:35:40;;;;;;;5.30;3.77;;;11.80;1.00;;;;;;4989460;28;20452;-78
2023/07/01 01:38:28;;;;;;;7.37;4.10;;;11.80;1.00;;;;;;4993504;28;20416;-78
2023/07/01 01:41:27;;;;;;;5.83;4.60;;;11.80;1.00;;;;;;4995636;28;20628;-78
2023/07/01 01:50:38;;;;;;;6.97;3.83;;;11.70;1.00;;;;;;4994479;28;20842;-78
2023/07/01 01:56:30;;;;;;;6.77;4.03;;;11.70;1.00;;;;;;4994270;28;20369;-79
2023/07/01 02:05:38;;;;;;;6.30;4.43;;;11.70;1.00;;;;;;4994173;28;20400;-78
2023/07/01 02:11:25;;;;;;;4.63;4.23;;;11.90;1.00;;;;;;4984306;28;20194;-78
2023/07/01 02:17:12;;;;;;;7.10;4.83;;;12.00;1.00;;;;;;4993951;28;20156;-78
2023/07/01 02:23:00;;;;;;;4.93;4.10;;;12.00;1.00;;;;;;4976417;28;20582;-78
2023/07/01 02:26:17;;;;;;;9.17;4.40;;;12.10;1.00;;;;;;4976662;28;20387;-78
2023/07/01 02:28:43;;;;;;;8.13;4.47;;;12.10;1.00;;;;;;4976172;28;20245;-78
2023/07/01 02:31:58;;;;;;;5.33;3.60;;;12.10;1.00;;;;;;4988197;28;20421;-78
2023/07/01 02:34:30;;;;;;;6.50;4.13;;;12.10;1.00;;;;;;4977816;28;20194;-78
2023/07/01 02:40:17;;;;;;;5.77;4.47;;;12.10;1.00;;;;;;4976863;28;20794;-78
2023/07/01 02:46:05;;;;;;;4.70;3.90;;;12.00;1.00;;;;;;5010527;28;20204;-78
2023/07/01 02:51:52;;;;;;;6.40;4.37;;;12.00;1.00;;;;;;4985274;28;20243;-86
2023/07/01 03:04:21;;;;;;;4.63;3.83;;;12.10;1.00;;;;;;5007452;28;20427;-80
2023/07/01 03:13:31;;;;;;;7.40;4.23;;;12.20;1.00;;;;;;5009321;28;20428;-84
2023/07/01 03:19:46;;;;;;;5.17;3.67;;;12.20;1.00;;;;;;4992336;28;20187;-84
2023/07/01 03:23:04;;;;;;;8.57;4.50;;;12.40;1.00;;;;;;5009732;28;21046;-83
2023/07/01 03:26:18;;;;;;;16.20;4.47;;;12.40;1.00;;;;;;4986538;28;20437;-84
2023/07/01 03:28:44;;;;;;;6.83;4.17;;;12.50;1.00;;;;;;4997953;28;20989;-84
2023/07/01 03:34:32;;;;;;;7.17;4.17;;;12.60;1.00;;;;;;5007723;28;20395;-84
2023/07/01 03:47:04;;;;;;;12.07;4.70;;;13.20;1.00;;;;;;5000195;28;20386;-84
2023/07/01 03:49:52;;;;;;;8.70;3.80;;;13.30;1.00;;;;;;5016110;28;20416;-84
2023/07/01 03:52:18;;;;;;;4.63;4.10;;;13.40;1.00;;;;;;5012706;28;20197;-84
2023/07/01 03:58:28;;;;;;;7.67;3.53;;;13.50;1.00;;;;;;4986538;28;20228;-81
2023/07/01 04:07:42;;;;;;;5.00;4.07;;;13.90;1.00;;;;;;4991635;28;20399;-81
2023/07/01 04:13:30;;;;;;;9.77;4.57;;;14.00;1.00;;;;;;4994373;28;20705;-81
2023/07/01 04:19:17;;;;;;;9.40;4.40;;;14.10;1.00;;;;;;4993351;28;20188;-81
2023/07/01 04:25:06;;;;;;;10.63;4.30;;;14.30;1.00;;;;;;5007742;28;20186;-83
2023/07/01 04:30:54;;;;;;;6.90;4.30;;;14.50;1.00;;;;;;4974916;28;20529;-83
2023/07/01 04:36:41;;;;;;;5.03;4.13;;;14.80;1.00;;;;;;4991426;28;20195;-83
2023/07/01 04:42:29;;;;;;;5.80;4.90;;;15.00;1.00;;;;;;4994166;28;20181;-81
2023/07/01 04:49:01;;;;;;;6.27;4.90;;;15.30;1.00;;;;;;5008851;28;20663;-82
2023/07/01 04:58:10;;;;;;;5.70;4.27;;;15.80;1.00;;;;;;5004152;28;20398;-82
2023/07/01 05:00:37;;;;;;;12.27;4.70;;;15.90;1.00;;;;;;5009566;28;20460;-82
2023/07/01 05:06:24;;;;;;;7.37;4.10;;;16.20;1.00;;;;;;4993761;28;20389;-82
2023/07/01 05:18:56;;;;;;;7.33;4.40;;;16.20;1.00;;;;;;4978125;28;20703;-84
2023/07/01 05:24:44;;;;;;;9.70;4.90;;;16.50;1.00;;;;;;4996760;28;20526;-83
2023/07/01 05:27:09;;;;;;;6.03;4.80;;;16.60;1.00;;;;;;5016166;28;20444;-83
2023/07/01 05:30:10;;;;;;;15.03;4.77;;;16.50;1.00;;;;;;5003452;28;20179;-83
2023/07/01 05:39:19;;;;;;;7.70;4.33;;;16.70;1.00;;;;;;4985008;28;20440;-83
2023/07/01 05:51:52;;;;;;;7.00;4.27;;;;;;;;;;4992408;28;20544;-84
2023/07/01 05:54:17;;;;;;;5.53;4.40;;;17.30;1.00;;;;;;4997331;28;20446;-83
2023/07/01 06:00:09;;;;;;;6.10;4.07;;;17.50;1.00;;;;;;4996518;28;20187;-83
2023/07/01 06:06:22;;;;;;;9.90;4.17;;;18.00;1.00;;;;;;4995387;28;20959;-83
2023/07/01 06:12:17;;;;;;;9.87;4.20;;;18.50;1.00;;;;;;4983060;28;20386;-83
2023/07/01 06:18:04;;;;;;;10.23;4.00;;;19.10;1.00;;;;;;5009542;28;20394;-83
2023/07/01 06:24:10;;;;;;;17.23;3.80;;;19.30;1.00;;;;;;4990913;28;20179;-86
2023/07/01 06:29:58;;;;;;;5.03;3.43;;;19.60;1.00;;;;;;4976532;28;20499;-85
2023/07/01 06:35:46;;;;;;;4.97;2.30;;;20.00;1.00;;;;;;5002295;28;20428;-83
2023/07/01 06:41:34;;;;;;;6.47;3.00;;;20.10;1.00;;;;;;4982044;28;20468;-85
2023/07/01 06:51:40;;;;;;;7.03;3.10;;;20.00;1.00;;;;;;5015486;28;20408;-85
2023/07/01 06:54:05;;;;;;;9.30;3.50;;;20.00;1.00;;;;;;4993322;28;20453;-84
2023/07/01 06:56:58;;;;;;;6.50;2.97;;;19.90;1.00;;;;;;4999079;28;20433;-84
2023/07/01 07:06:07;;;;;;;6.73;3.07;;;20.60;1.00;;;;;;4976283;28;20371;-85
2023/07/01 07:12:22;;;;;;;5.50;2.60;;;21.20;1.00;;;;;;4987469;28;20188;-84
2023/07/01 07:18:10;;;;;;;5.23;2.73;;;21.40;1.00;;;;;;4975549;28;20449;-84
2023/07/01 07:24:05;;;;;;;2.40;2.10;;;21.70;1.00;;;;;;5000817;28;20178;-83
2023/07/01 07:36:36;;;;;;;7.57;2.07;;;22.40;1.00;;;;;;4976472;28;20413;-82
2023/07/01 07:42:23;;;;;;;7.67;2.13;;;22.20;1.00;;;;;;4985498;28;20225;-85
2023/07/01 07:48:28;;;;;;;1.83;1.50;;;22.40;1.00;;;;;;5008115;28;20221;-85
2023/07/01 07:51:04;;;;;;;3.90;1.60;;;22.80;1.00;;;;;;5005732;28;20830;-85
2023/07/01 07:54:16;;;;;;;3.77;1.80;;;22.90;1.00;;;;;;4990548;28;20440;-85
2023/07/01 08:00:28;;;;;;;6.83;1.70;;;23.50;1.00;;;;;;4981179;28;20435;-83
2023/07/01 08:02:55;;;;;;;5.20;2.07;;;;;;;;;;5003272;28;20935;-84
2023/07/01 08:05:58;;;;;;;2.23;1.80;;;23.40;1.00;;;;;;5010890;28;20462;-84
2023/07/01 08:11:59;;;;;;;2.77;2.00;;;22.90;1.00;;;;;;5002912;28;20444;-83
2023/07/01 08:14:47;;;;;;;10.43;2.10;;;23.00;1.00;;;;;;5005279;28;20814;-84
2023/07/01 08:18:04;;;;;;;6.93;2.10;;;22.80;1.00;;;;;;4998108;28;20411;-85
2023/07/01 08:20:58;;;;;;;2.60;1.90;;;22.70;1.00;;;;;;5007648;28;20549;-86
2023/07/01 08:27:10;;;;;;;5.63;2.50;;;22.90;1.00;;;;;;5007281;28;20466;-86
2023/07/01 08:29:41;;;;;;;3.53;2.20;;;23.10;1.00;;;;;;5003282;28;20432;-87
2023/07/01 08:32:28;;;;;;;35.93;4.50;;;23.00;1.00;;;;;;5010455;28;20433;-86
2023/07/01 08:34:59;;;;;;;3.30;2.10;;;23.30;1.00;;;;;;5006668;28;20520;-87
2023/07/01 08:37:29;;;;;;;5.70;2.10;;;23.20;1.00;;;;;;4995001;28;20921;-87
2023/07/01 08:40:40;;;;;;;5.20;2.10;;;23.00;1.00;;;;;;5023079;28;20438;-87
2023/07/01 08:43:23;;;;;;;3.13;2.20;;;22.60;1.00;;;;;;4998315;28;21016;-87
2023/07/01 08:45:59;;;;;;;4.33;2.13;;;22.50;1.00;;;;;;5012861;28;20409;-84
2023/07/01 08:48:34;;;;;;;5.47;2.10;;;22.50;1.00;;;;;;4992943;28;20395;-83
2023/07/01 08:51:17;;;;;;;15.80;2.00;;;22.40;1.00;;;;;;5009220;28;20421;-74
2023/07/01 08:53:47;;;;;;;2.20;2.00;;;22.50;1.00;;;;;;4989814;28;20444;-74
2023/07/01 08:56:19;;;;;;;1.77;1.67;;;22.50;1.00;;;;;;4997353;28;20504;-74
2023/07/01 08:58:47;;;;;;;1.63;1.50;;;22.50;1.00;;;;;;5010732;28;20413;-74
2023/07/01 09:01:18;;;;;;;2.93;1.60;;;22.50;1.00;;;;;;4985295;28;20536;-74
2023/07/01 09:03:46;;;;;;;7.20;1.53;;;22.20;1.00;;;;;;4997336;28;21012;-74
2023/07/01 09:06:17;;;;;;;3.50;1.50;;;21.80;1.00;;;;;;4997683;28;20419;-76
2023/07/01 09:08:42;;;;;;;10.93;1.67;;;21.80;1.00;;;;;;5001731;28;20435;-74
2023/07/01 09:11:14;;;;;;;5.53;1.43;;;21.70;1.00;;;;;;5008298;28;20412;-74
2023/07/01 09:13:40;;;;;;;3.00;1.50;;;21.80;1.00;;;;;;4997495;28;20523;-74
2023/07/01 09:16:11;;;;;;;6.20;1.77;;;21.80;1.00;;;;;;4997566;28;20416;-74
2023/07/01 09:18:43;;;;;;;4.97;1.20;;;22.00;1.00;;;;;;4997525;28;20458;-74
2023/07/01 09:21:19;;;;;;;1.43;1.33;;;22.20;1.00;;;;;;4997079;28;20452;-74
2023/07/01 09:23:44;;;;;;;4.93;1.63;;;22.10;1.00;;;;;;4997724;28;20412;-74
2023/07/01 09:26:13;;;;;;;11.90;1.30;;;22.00;1.00;;;;;;4999641;28;20471;-74
2023/07/01 09:28:59;;;;;;;3.37;1.40;;;22.00;1.00;;;;;;5009827;28;20204;-78
2023/07/01 09:31:55;;;;;;;2.20;1.20;;;22.20;1.00;;;;;;5011510;28;20431;-78
2023/07/01 09:34:58;;;;;;;3.70;1.30;;;22.40;1.00;;;;;;5008563;28;20445;-78
2023/07/01 09:37:29;;;;;;;17.23;1.37;;;22.60;1.00;;;;;;5003106;28;20806;-78
2023/07/01 09:40:28;;;;;;;15.53;1.50;;;22.70;1.00;;;;;;5016239;28;20421;-79
2023/07/01 09:46:46;;;;;;;9.20;1.70;;;22.50;1.00;;;;;;5000521;28;20493;-78
2023/07/01 09:53:28;;;;;;;17.67;1.60;;;22.10;1.00;;;;;;5001390;28;20413;-78
2023/07/01 09:56:28;;;;;;;1.83;1.07;;;21.80;1.00;;;;;;4999592;28;20494;-79
2023/07/01 09:59:28;;;;;;;17.03;1.70;;;21.70;1.00;;;;;;4996624;28;20469;-79
2023/07/01 10:02:01;;;;;;;4.20;1.23;;;21.60;1.00;;;;;;4987910;28;20484;-78
2023/07/01 10:04:28;;;;;;;10.93;1.30;;;21.60;1.00;;;;;;4976734;28;20409;-78
2023/07/01 10:06:59;;;;;;;2.63;1.43;;;21.60;1.00;;;;;;5003970;28;20805;-79
2023/07/01 10:12:47;;;;;;;2.80;1.23;;;22.10;1.00;;;;;;4996114;28;20787;-79
2023/07/01 10:15:23;;;;;;;17.30;1.80;;;22.10;1.00;;;;;;4998877;28;20393;-74
2023/07/01 10:17:50;;;;;;;3.93;1.43;;;22.10;1.00;;;;;;5002788;28;20422;-74
2023/07/01 10:20:33;;;;;;;1.83;1.20;;;22.00;1.00;;;;;;4993698;28;20858;-73
2023/07/01 10:23:18;;;;;;;1.63;1.30;;;21.80;1.00;;;;;;4989688;28;20894;-74
2023/07/01 10:25:43;;;;;;;1.63;1.40;;;21.90;1.00;;;;;;4987831;28;20511;-74
2023/07/01 10:28:26;;;;;;;5.00;1.10;;;21.90;1.00;;;;;;5001313;28;20888;-74
2023/07/01 10:31:01;;;;;;;2.40;1.30;;;21.90;1.00;;;;;;4992587;28;20275;-74
2023/07/01 10:33:27;;;;;;;4.50;1.27;;;21.70;1.00;;;;;;4992683;28;20612;-74
2023/07/01 10:36:23;;;;;;;1.30;1.03;;;21.50;1.00;;;;;;5005308;28;20511;-74
2023/07/01 10:38:49;;;;;;;3.97;1.57;;;21.10;1.00;;;;;;4981309;28;20194;-74
2023/07/01 10:41:51;;;;;;;11.73;1.70;;;21.10;1.00;;;;;;4993255;28;20469;-74
2023/07/01 10:44:24;;;;;;;1.87;1.43;;;21.10;1.00;;;;;;4990563;28;20423;-79
2023/07/01 10:47:19;;;;;;;4.63;1.30;;;21.20;1.00;;;;;;5004407;28;20437;-82
2023/07/01 10:53:07;;;;;;;2.07;1.60;;;21.50;1.00;;;;;;4954242;29;20413;-82
2023/07/01 10:55:40;;;;;;;3.60;1.60;;;21.50;1.00;;;;;;4954312;29;20437;-82
2023/07/01 10:58:28;;;;;;;1.63;1.40;;;21.50;1.00;;;;;;4934261;29;20621;-82
2023/07/01 11:01:05;;;;;;;3.93;1.67;;;21.30;1.00;;;;;;4947750;29;20829;-82
2023/07/01 11:03:58;;;;;;;5.40;1.60;;;21.20;1.00;;;;;;4942877;29;20445;-82
2023/07/01 11:07:01;;;;;;;6.93;1.63;;;21.20;1.00;;;;;;4936349;29;20525;-82
2023/07/01 11:09:41;;;;;;;2.10;1.40;;;21.60;1.00;;;;;;4900982;29;20429;-82
2023/07/01 11:12:11;;;;;;;4.03;1.23;;;21.20;1.00;;;;;;4912632;29;20483;-82
2023/07/01 11:14:39;;;;;;;3.63;1.60;;;21.40;1.00;;;;;;4904943;29;20434;-86
2023/07/01 11:17:28;;;;;;;2.70;1.50;;;;;;;;;;4935878;28;20425;-85
2023/07/01 11:19:59;;;;;;;2.07;1.50;;;21.50;1.00;;;;;;4919332;29;20594;-87
2023/07/01 11:22:29;;;;;;;2.97;1.40;;;21.50;1.00;;;;;;4935577;29;20476;-86
2023/07/01 11:25:28;;;;;;;2.50;1.47;;;21.40;1.00;;;;;;4932249;29;21115;-86
2023/07/01 11:27:55;;;;;;;1.40;1.30;;;;;;;;;;4911085;29;20499;-86
2023/07/01 11:30:40;;;;;;;6.47;2.00;;;21.40;1.00;;;;;;4900864;29;20434;-86
2023/07/01 11:33:28;;;;;;;2.73;1.50;;;21.30;1.00;;;;;;4888544;29;20467;-87
2023/07/01 11:35:59;;;;;;;3.93;1.50;;;21.20;1.00;;;;;;4897823;29;20424;-87
2023/07/01 11:38:30;;;;;;;2.20;1.70;;;21.30;1.00;;;;;;4897621;29;20510;-87
2023/07/01 11:40:59;;;;;;;3.73;1.77;;;21.40;1.00;;;;;;4900393;29;20532;-86
2023/07/01 11:43:29;;;;;;;2.23;1.73;;;21.50;1.00;;;;;;4961456;28;20428;-85
2023/07/01 11:46:29;;;;;;;7.20;1.50;;;21.30;1.00;;;;;;4992329;28;20431;-82
2023/07/01 11:49:21;;;;;;;3.10;1.87;;;21.30;1.00;;;;;;5000500;28;20562;-82
2023/07/01 11:52:04;;;;;;;3.93;1.43;;;21.50;1.00;;;;;;4990879;28;20932;-84
2023/07/01 11:54:58;;;;;;;1.90;1.70;;;21.70;1.00;;;;;;4992834;28;20438;-83
2023/07/01 12:01:23;;;;;;;12.40;2.00;;;21.90;1.00;;;;;;5012314;28;20565;-83
2023/07/01 12:03:54;;;;;;;4.10;1.70;;;22.10;1.00;;;;;;5000109;28;20432;-84
2023/07/01 12:06:29;;;;;;;4.60;1.37;;;22.30;1.00;;;;;;4995293;28;20416;-76
2023/07/01 12:09:03;;;;;;;6.50;2.03;;;22.30;1.00;;;;;;5014871;28;20456;-75
2023/07/01 12:11:29;;;;;;;12.87;1.60;;;22.30;1.00;;;;;;5019733;28;20418;-80
2023/07/01 12:14:15;;;;;;;2.57;1.50;;;22.20;1.00;;;;;;5015652;28;20422;-78
2023/07/01 12:17:01;;;;;;;1.23;1.13;;;22.30;1.00;;;;;;5010192;28;20186;-77
2023/07/01 12:19:30;;;;;;;3.70;1.20;;;22.20;1.00;;;;;;5005072;28;20418;-77
2023/07/01 12:22:00;;;;;;;1.47;1.33;;;21.90;1.00;;;;;;5011486;28;20458;-77
2023/07/01 12:24:58;;;;;;;2.07;1.40;;;21.70;1.00;;;;;;5001508;28;20524;-80
2023/07/01 12:27:29;;;;;;;2.83;1.80;;;21.80;1.00;;;;;;4995907;28;20526;-76
2023/07/01 12:29:59;;;;;;;1.37;1.30;;;21.80;1.00;;;;;;4979954;28;20433;-74
2023/07/01 12:32:29;;;;;;;1.50;1.40;;;21.90;1.00;;;;;;4988763;28;20759;-74
2023/07/01 12:34:58;;;;;;;2.87;1.97;;;21.90;1.00;;;;;;4997836;28;20432;-74
2023/07/01 12:37:29;;;;;;;3.17;1.47;;;21.80;1.00;;;;;;4998008;28;20879;-74
2023/07/01 12:39:59;;;;;;;2.13;1.57;;;21.70;1.00;;;;;;5009031;28;20954;-74
2023/07/01 12:42:25;;;;;;;1.40;1.30;;;21.70;1.00;;;;;;5012947;28;20459;-73
2023/07/01 12:44:53;;;;;;;2.30;1.60;;;21.70;1.00;;;;;;5002494;28;20418;-75
2023/07/01 12:47:23;;;;;;;1.27;1.17;;;21.60;1.00;;;;;;5006211;28;20418;-74
2023/07/01 12:49:59;;;;;;;1.60;1.50;;;21.60;1.00;;;;;;5003563;28;20444;-74
2023/07/01 12:52:24;;;;;;;2.87;1.50;;;21.70;1.00;;;;;;4997285;28;20430;-74
2023/07/01 12:54:59;;;;;;;1.63;1.37;;;21.70;1.00;;;;;;5012139;28;20484;-74
2023/07/01 12:57:25;;;;;;;2.20;1.20;;;21.60;1.00;;;;;;5012134;28;20248;-73
2023/07/01 12:59:54;;;;;;;2.03;1.83;;;;;;;;;;5001027;28;20906;-74
2023/07/01 13:02:23;;;;;;;3.20;1.60;;;21.70;1.00;;;;;;4999082;28;20220;-74
2023/07/01 13:05:00;;;;;;;12.23;1.53;;;21.70;1.00;;;;;;4996531;28;20434;-73
2023/07/01 13:07:35;;;;;;;7.90;1.87;;;21.80;1.00;;;;;;4997161;28;20435;-74
2023/07/01 13:10:02;;;;;;;1.90;1.60;;;21.90;1.00;;;;;;4991416;28;20881;-73
2023/07/01 13:15:53;;;;;;;3.87;1.73;;;22.10;1.00;;;;;;4992799;28;20428;-82
2023/07/01 13:18:23;;;;;;;2.60;2.20;;;22.00;1.00;;;;;;4987969;28;20414;-87
2023/07/01 13:21:16;;;;;;;3.33;2.07;;;22.10;1.00;;;;;;4991370;28;20456;-84
2023/07/01 13:24:05;;;;;;;8.73;1.70;;;22.10;1.00;;;;;;5009570;28;20420;-88
2023/07/01 13:26:47;;;;;;;4.90;1.90;;;21.90;1.00;;;;;;5013424;28;20431;-87
2023/07/01 13:29:52;;;;;;;2.27;1.60;;;21.90;1.00;;;;;;5003523;28;20428;-83
2023/07/01 13:36:34;;;;;;;2.80;1.70;;;21.90;1.00;;;;;;5008137;28;20431;-84
2023/07/01 13:39:41;;;;;;;12.00;2.03;;;21.80;1.00;;;;;;4991701;28;20502;-89
2023/07/01 13:45:29;;;;;;;3.50;2.10;;;21.90;1.00;;;;;;5003780;28;20483;-82
2023/07/01 13:55:20;;;;;;;7.70;1.30;;;22.10;1.00;;;;;;5010163;28;20411;-82
2023/07/01 13:57:52;;;;;;;6.00;2.13;;;22.30;1.00;;;;;;4999473;28;20810;-81
2023/07/01 14:00:46;;;;;;;1.80;1.70;;;22.10;1.00;;;;;;5011114;28;20489;-81
2023/07/01 14:06:39;;;;;;;7.43;2.00;;;22.20;1.00;;;;;;5008708;28;20452;-81
2023/07/01 14:09:24;;;;;;;4.50;1.80;;;22.30;1.00;;;;;;4997659;28;20468;-81
2023/07/01 14:18:39;;;;;;;1.80;1.70;;;22.70;1.00;;;;;;4996741;28;20470;-81
2023/07/01 14:21:05;;;;;;;2.30;1.60;;;22.70;1.00;;;;;;5010341;28;22265;-81
2023/07/01 14:23:55;;;;;;;1.83;1.73;;;22.60;1.00;;;;;;4992151;28;20428;-82
2023/07/01 14:26:42;;;;;;;3.57;1.70;;;22.50;1.00;;;;;;5003956;28;20211;-84
2023/07/01 14:29:52;;;;;;;2.70;2.27;;;22.30;1.00;;;;;;4989197;28;20472;-83
2023/07/01 14:39:05;;;;;;;4.97;1.73;;;22.30;1.00;;;;;;4996638;28;20467;-81
2023/07/01 14:45:41;;;;;;;4.53;2.00;;;22.20;1.00;;;;;;4995747;28;20416;-81
2023/07/01 14:48:07;;;;;;;1.50;1.40;;;22.00;1.00;;;;;;4997597;28;20418;-74
2023/07/01 14:50:36;;;;;;;3.20;1.40;;;22.10;1.00;;;;;;4987579;28;20428;-74
2023/07/01 14:53:05;;;;;;;10.70;1.73;;;22.00;1.00;;;;;;5007220;28;20446;-74
2023/07/01 14:55:30;;;;;;;1.73;1.63;;;22.00;1.00;;;;;;5007511;28;20927;-74
2023/07/01 14:57:59;;;;;;;5.37;1.63;;;22.00;1.00;;;;;;4988134;28;20520;-74
2023/07/01 15:00:29;;;;;;;2.03;1.83;;;22.00;1.00;;;;;;4993342;28;20681;-74
2023/07/01 15:06:16;;;;;;;3.70;1.40;;;22.20;1.00;;;;;;5004224;28;20412;-81
2023/07/01 15:08:59;;;;;;;1.43;1.27;;;22.00;1.00;;;;;;4994723;28;20413;-81
2023/07/01 15:11:41;;;;;;;3.97;1.60;;;21.90;1.00;;;;;;5009840;28;20186;-81
2023/07/01 15:17:47;;;;;;;3.90;2.03;;;21.60;1.00;;;;;;4994757;28;20411;-81
2023/07/01 15:20:13;;;;;;;3.73;1.87;;;21.50;1.00;;;;;;5008349;28;20446;-73
2023/07/01 15:22:38;;;;;;;2.17;1.90;;;21.40;1.00;;;;;;4994867;28;20471;-73
2023/07/01 15:25:04;;;;;;;1.63;1.53;;;21.30;1.00;;;;;;4997091;28;20184;-73
2023/07/01 15:27:30;;;;;;;2.50;2.30;;;21.50;1.00;;;;;;5005419;28;20182;-73
2023/07/01 15:29:56;;;;;;;1.80;1.70;;;21.70;1.00;;;;;;4993893;28;20503;-73
2023/07/01 15:32:21;;;;;;;2.73;2.10;;;21.70;1.00;;;;;;4998428;28;20201;-74
2023/07/01 15:38:08;;;;;;;2.57;2.20;;;21.20;1.00;;;;;;4994886;28;20205;-81
2023/07/01 15:43:56;;;;;;;6.70;2.20;;;21.10;1.00;;;;;;4975294;28;20172;-81
2023/07/01 15:49:44;;;;;;;3.97;2.37;;;21.50;1.00;;;;;;5012580;28;20184;-81
2023/07/01 15:55:47;;;;;;;4.07;2.23;;;21.60;1.00;;;;;;4987342;28;20176;-81
2023/07/01 16:02:05;;;;;;;2.23;2.07;;;21.70;1.00;;;;;;4984728;28;20475;-81
2023/07/01 16:04:38;;;;;;;5.00;2.07;;;21.80;1.00;;;;;;4999099;28;20525;-74
2023/07/01 16:07:27;;;;;;;2.17;1.97;;;21.80;1.00;;;;;;4996892;28;20515;-74
2023/07/01 16:10:02;;;;;;;2.40;1.70;;;21.80;1.00;;;;;;5001295;28;20422;-74
2023/07/01 16:12:36;;;;;;;1.70;1.60;;;21.80;1.00;;;;;;4997630;28;20951;-74
2023/07/01 16:15:23;;;;;;;7.10;1.80;;;21.60;1.00;;;;;;4993136;28;20439;-74
2023/07/01 16:17:53;;;;;;;8.23;1.83;;;21.60;1.00;;;;;;4993418;28;20514;-74
2023/07/01 16:20:57;;;;;;;3.50;1.80;;;21.40;1.00;;;;;;4994456;28;20422;-81
2023/07/01 16:26:45;;;;;;;5.93;1.70;;;21.20;1.00;;;;;;4972303;28;20491;-81
2023/07/01 16:29:47;;;;;;;2.13;1.50;;;21.10;1.00;;;;;;4975996;28;20427;-81
2023/07/01 16:32:20;;;;;;;1.60;1.50;;;21.10;1.00;;;;;;5001616;28;20517;-82
2023/07/01 16:34:47;;;;;;;2.57;2.03;;;21.00;1.00;;;;;;4991645;28;20442;-81
2023/07/01 16:40:46;;;;;;;1.50;1.33;;;21.20;1.00;;;;;;5011519;28;20441;-80
2023/07/01 16:49:57;;;;;;;2.07;1.87;;;21.00;1.00;;;;;;5002059;28;20390;-81
2023/07/01 16:52:46;;;;;;;1.80;1.70;;;21.00;1.00;;;;;;5007630;28;20436;-81
2023/07/01 16:58:36;;;;;;;2.00;1.57;;;21.00;1.00;;;;;;4974153;28;20426;-80
2023/07/01 17:01:04;;;;;;;1.70;1.60;;;21.00;1.00;;;;;;4974341;28;20463;-81
2023/07/01 17:03:54;;;;;;;1.80;1.63;;;21.10;1.00;;;;;;4995254;28;20419;-81
2023/07/01 17:06:49;;;;;;;2.20;1.43;;;21.20;1.00;;;;;;4995989;28;20435;-74
2023/07/01 17:09:49;;;;;;;3.60;1.40;;;21.20;1.00;;;;;;4995533;28;20450;-74
2023/07/01 17:12:29;;;;;;;1.40;1.10;;;21.40;1.00;;;;;;4995581;28;20448;-74
2023/07/01 17:14:55;;;;;;;1.07;1.00;;;21.50;1.00;;;;;;5004694;28;20442;-74
2023/07/01 17:17:33;;;;;;;2.00;1.17;;;21.50;1.00;;;;;;4995544;28;20448;-74
2023/07/01 17:26:41;;;;;;;1.50;1.40;;;21.40;1.00;;;;;;4985810;28;20481;-80
2023/07/01 17:29:40;;;;;;;1.83;1.60;;;21.40;1.00;;;;;;4995233;28;20927;-80
2023/07/01 17:35:28;;;;;;;2.30;1.30;;;21.30;1.00;;;;;;4985548;28;20471;-74
2023/07/01 17:37:54;;;;;;;1.83;1.27;;;21.20;1.00;;;;;;5001542;28;20442;-74
2023/07/01 17:40:21;;;;;;;1.83;1.10;;;21.30;1.00;;;;;;5000473;28;20267;-74
2023/07/01 17:42:51;;;;;;;2.40;1.20;;;21.40;1.00;;;;;;4999031;28;20506;-74
2023/07/01 17:45:18;;;;;;;1.40;1.20;;;21.40;1.00;;;;;;4994158;28;20450;-74
2023/07/01 17:47:44;;;;;;;1.00;1.00;;;21.60;1.00;;;;;;5002562;28;20461;-74
2023/07/01 17:53:31;;;;;;;2.43;1.10;;;21.70;1.00;;;;;;5000322;28;20534;-81
2023/07/01 17:56:48;;;;;;;1.47;1.37;;;21.50;1.00;;;;;;5015657;28;20423;-81
2023/07/01 17:59:23;;;;;;;2.20;1.30;;;21.30;1.00;;;;;;5016268;28;20542;-81
2023/07/01 18:05:10;;;;;;;3.23;1.20;;;21.10;1.00;;;;;;4993489;28;20960;-81
2023/07/01 18:10:57;;;;;;;1.50;1.17;;;20.70;1.00;;;;;;5015722;28;20189;-81
2023/07/01 18:20:07;;;;;;;2.20;1.93;;;19.60;1.00;;;;;;4995734;28;20914;-74
2023/07/01 18:22:33;;;;;;;2.53;2.33;;;19.50;1.00;;;;;;4984825;28;20781;-74
2023/07/01 18:24:59;;;;;;;3.53;2.13;;;19.40;1.00;;;;;;4998271;28;20421;-74
2023/07/01 18:27:24;;;;;;;2.27;2.07;;;19.30;1.00;;;;;;4994110;28;20718;-74
2023/07/01 18:29:53;;;;;;;3.90;2.70;;;19.10;1.00;;;;;;5001013;28;20184;-74
2023/07/01 18:32:18;;;;;;;3.80;3.03;;;19.10;1.00;;;;;;5001422;28;20238;-73
2023/07/01 18:34:54;;;;;;;2.47;2.37;;;19.20;1.00;;;;;;4991749;28;20533;-77
2023/07/01 18:37:21;;;;;;;3.60;2.60;;;19.10;1.00;;;;;;5010239;28;20247;-74
2023/07/01 18:39:46;;;;;;;2.40;2.20;;;19.20;1.00;;;;;;4999813;28;20993;-74
2023/07/01 18:42:17;;;;;;;3.63;2.60;;;19.30;1.00;;;;;;4999226;28;20515;-74
2023/07/01 18:44:47;;;;;;;3.23;2.23;;;19.30;1.00;;;;;;5000287;28;20201;-73
2023/07/01 18:47:12;;;;;;;4.07;2.63;;;19.40;1.00;;;;;;4998356;28;20434;-74
2023/07/01 18:49:38;;;;;;;3.60;2.20;;;19.40;1.00;;;;;;5006062;28;20830;-74
2023/07/01 18:55:25;;;;;;;2.40;2.20;;;19.40;1.00;;;;;;4991140;28;20220;-80
2023/07/01 19:01:13;;;;;;;2.93;2.73;;;19.50;1.00;;;;;;5007800;28;20722;-80
2023/07/01 19:04:10;;;;;;;4.67;2.27;;;19.60;1.00;;;;;;4994791;28;20412;-80
2023/07/01 19:06:36;;;;;;;4.50;2.20;;;19.70;1.00;;;;;;4999960;28;20213;-74
2023/07/01 19:09:05;;;;;;;2.77;2.50;;;19.70;1.00;;;;;;4993185;28;20504;-74
2023/07/01 19:11:30;;;;;;;8.07;2.80;;;19.60;1.00;;;;;;4997206;28;20657;-74
2023/07/01 19:14:05;;;;;;;2.47;2.27;;;19.70;1.00;;;;;;4989711;28;20422;-75
2023/07/01 19:16:41;;;;;;;3.57;1.80;;;19.70;1.00;;;;;;4989775;28;20227;-74
2023/07/01 19:19:17;;;;;;;2.60;2.40;;;19.60;1.00;;;;;;4993229;28;20436;-74
2023/07/01 19:22:12;;;;;;;6.00;2.10;;;19.60;1.00;;;;;;4994347;28;20971;-81
2023/07/01 19:25:28;;;;;;;10.53;2.53;;;19.40;1.00;;;;;;4990741;28;20426;-80
2023/07/01 19:31:23;;;;;;;6.73;3.00;;;19.40;1.00;;;;;;4990863;28;20962;-80
2023/07/01 19:33:53;;;;;;;2.80;2.60;;;19.30;1.00;;;;;;5003215;28;20432;-80
2023/07/01 19:36:23;;;;;;;10.63;2.67;;;19.30;1.00;;;;;;4994816;28;20428;-80
2023/07/01 19:38:50;;;;;;;3.63;2.50;;;19.30;1.00;;;;;;4997829;28;20912;-81
2023/07/01 19:41:16;;;;;;;4.00;2.80;;;19.30;1.00;;;;;;4992452;28;20470;-83
2023/07/01 19:43:50;;;;;;;3.20;2.83;;;19.30;1.00;;;;;;4987127;28;20521;-81
2023/07/01 19:46:17;;;;;;;8.77;3.33;;;19.20;1.00;;;;;;5002159;28;20475;-81
2023/07/01 19:48:43;;;;;;;4.20;3.07;;;19.30;1.00;;;;;;4993893;28;20409;-80
2023/07/01 19:51:09;;;;;;;4.83;2.70;;;19.20;1.00;;;;;;4992857;28;20973;-74
2023/07/01 19:53:34;;;;;;;3.40;3.00;;;19.20;1.00;;;;;;4986619;28;20213;-75
2023/07/01 19:56:00;;;;;;;3.57;2.90;;;19.30;1.00;;;;;;4993452;28;20191;-74
2023/07/01 19:58:26;;;;;;;3.40;3.10;;;19.20;1.00;;;;;;4993457;28;20716;-75
2023/07/01 20:00:52;;;;;;;4.20;3.43;;;19.30;1.00;;;;;;4990536;28;20220;-75
2023/07/01 20:03:18;;;;;;;2.83;2.63;;;19.30;1.00;;;;;;4992621;28;20189;-75
2023/07/01 20:09:58;;;;;;;9.00;2.97;;;19.30;1.00;;;;;;4974859;28;20378;-79
2023/07/01 20:23:22;;;;;;;5.20;2.97;;;19.10;1.00;;;;;;4977934;28;20532;-81
2023/07/01 20:25:53;;;;;;;8.80;3.57;;;19.00;1.00;;;;;;4989288;28;20447;-80